Time;durP1;ratioP1;P1;durP2;ratioP2;P2;SDS_P1;SDS_P2;PMS_P1;PMS_P2;Temp;Humidity;BMP_temperature;BMP_pressure;BME280_temperature;BME280_humidity;BME280_pressure;Samples;Min_cycle;Max_cycle;Signal;HPM_P1;HPM_P2
2022/04/30 00:00:10;;;;;;;4.78;3.83;;;;;;;;;;5015804;28;20064;-81
2022/04/30 00:02:35;;;;;;;5.10;3.75;;;;;;;;;;5016159;28;20030;-84
2022/04/30 00:05:01;;;;;;;5.07;3.85;;;;;;;;;;5014617;28;20471;-81
2022/04/30 00:07:26;;;;;;;5.85;3.60;;;;;;;;;;5014899;28;20040;-83
2022/04/30 00:09:52;;;;;;;4.47;3.55;;;;;;;;;;5014773;28;20522;-81
2022/04/30 00:12:17;;;;;;;5.50;3.83;;;;;;;;;;5014494;28;20452;-83
2022/04/30 00:14:44;;;;;;;5.07;3.97;;;;;;;;;;5014389;28;20080;-82
2022/04/30 00:17:10;;;;;;;5.60;3.67;;;;;;;;;;5016002;28;20025;-82
2022/04/30 00:19:35;;;;;;;6.28;4.07;;;;;;;;;;5016905;28;20048;-81
2022/04/30 00:22:01;;;;;;;6.07;4.28;;;;;;;;;;5019899;28;20558;-84
2022/04/30 00:24:26;;;;;;;5.30;3.80;;;;;;;;;;5017642;28;20041;-82
2022/04/30 00:26:52;;;;;;;6.00;4.38;;;;;;;;;;5023549;28;20367;-83
2022/04/30 00:29:18;;;;;;;6.30;4.88;;;;;;;;;;5022261;28;20032;-80
2022/04/30 00:31:43;;;;;;;6.85;4.35;;;;;;;;;;5007003;28;20026;-81
2022/04/30 00:34:09;;;;;;;7.35;4.40;;;;;;;;;;5006658;28;20006;-81
2022/04/30 00:36:35;;;;;;;7.32;4.32;;;;;;;;;;5026261;28;20422;-84
2022/04/30 00:39:00;;;;;;;7.22;4.45;;;;;;;;;;5002532;28;20026;-81
2022/04/30 00:41:26;;;;;;;5.15;4.00;;;;;;;;;;5002709;28;20018;-81
2022/04/30 00:43:53;;;;;;;5.18;3.63;;;;;;;;;;5016036;28;20456;-84
2022/04/30 00:46:20;;;;;;;4.95;4.10;;;;;;;;;;5013933;28;20061;-82
2022/04/30 00:48:45;;;;;;;4.28;3.70;;;;;;;;;;5014117;28;20049;-83
2022/04/30 00:51:12;;;;;;;5.22;3.90;;;;;;;;;;5014240;28;20038;-83
2022/04/30 00:53:41;;;;;;;4.18;3.78;;;;;;;;;;5013978;28;20367;-81
2022/04/30 00:56:13;;;;;;;4.30;3.83;;;;;;;;;;4997452;28;20038;-85
2022/04/30 00:58:44;;;;;;;4.28;3.45;;;;;;;;;;5013934;28;20622;-84
2022/04/30 01:01:10;;;;;;;6.75;3.90;;;;;;;;;;5013658;28;20018;-82
2022/04/30 01:03:36;;;;;;;7.97;3.83;;;;;;;;;;4997305;28;20033;-81
2022/04/30 01:06:04;;;;;;;5.93;4.00;;;;;;;;;;5015253;28;20387;-82
2022/04/30 01:08:30;;;;;;;4.20;3.58;;;;;;;;;;5014189;28;20383;-85
2022/04/30 01:10:56;;;;;;;4.78;3.80;;;;;;;;;;5014725;28;20034;-85
2022/04/30 01:13:22;;;;;;;6.18;3.92;;;;;;;;;;5014662;28;20056;-82
2022/04/30 01:15:47;;;;;;;7.03;4.93;;;;;;;;;;5013708;28;20495;-80
2022/04/30 01:18:13;;;;;;;5.82;4.10;;;;;;;;;;5014674;28;20144;-83
2022/04/30 01:20:46;;;;;;;7.45;4.75;;;;;;;;;;5013410;28;20042;-83
2022/04/30 01:23:12;;;;;;;6.32;4.32;;;;;;;;;;5013701;28;20034;-85
2022/04/30 01:25:38;;;;;;;10.50;4.38;;;;;;;;;;5013475;28;20041;-83
2022/04/30 01:28:03;;;;;;;6.60;4.45;;;;;;;;;;5014543;28;20057;-81
2022/04/30 01:30:29;;;;;;;7.57;4.43;;;;;;;;;;5013580;28;20451;-86
2022/04/30 01:38:22;;;;;;;6.03;4.57;;;;;;;;;;5014280;28;20506;-82
2022/04/30 01:40:48;;;;;;;6.90;4.43;;;;;;;;;;5014678;28;20029;-83
2022/04/30 01:43:13;;;;;;;6.53;4.50;;;;;;;;;;5014663;28;20141;-84
2022/04/30 01:45:39;;;;;;;6.53;4.60;;;;;;;;;;5014541;28;20036;-84
2022/04/30 01:48:04;;;;;;;8.00;4.75;;;;;;;;;;5016136;28;20040;-84
2022/04/30 01:50:32;;;;;;;7.00;4.57;;;;;;;;;;5000749;28;20076;-83
2022/04/30 01:52:58;;;;;;;5.90;4.47;;;;;;;;;;5017280;28;20045;-82
2022/04/30 01:55:23;;;;;;;6.85;4.38;;;;;;;;;;5017012;28;20363;-85
2022/04/30 01:57:49;;;;;;;8.60;4.20;;;;;;;;;;5000881;28;20038;-82
2022/04/30 02:00:15;;;;;;;5.53;4.18;;;;;;;;;;5017257;28;20034;-87
2022/04/30 02:02:44;;;;;;;4.88;3.97;;;;;;;;;;5017103;28;20034;-83
2022/04/30 02:05:09;;;;;;;5.57;4.53;;;;;;;;;;5000483;28;20037;-83
2022/04/30 02:07:37;;;;;;;6.63;4.65;;;;;;;;;;5018219;28;20410;-84
2022/04/30 02:10:03;;;;;;;7.53;4.55;;;;;;;;;;5016765;28;20033;-82
2022/04/30 02:12:32;;;;;;;6.30;4.40;;;;;;;;;;5000389;28;20030;-84
2022/04/30 02:14:57;;;;;;;7.95;4.32;;;;;;;;;;5016755;28;20034;-84
2022/04/30 02:17:23;;;;;;;6.65;4.68;;;;;;;;;;5000457;28;20026;-86
2022/04/30 02:22:38;;;;;;;9.05;4.32;;;;;;;;;;5021015;28;20033;-81
2022/04/30 02:25:05;;;;;;;7.28;4.53;;;;;;;;;;5017372;28;20030;-82
2022/04/30 02:27:31;;;;;;;6.85;4.60;;;;;;;;;;5001367;28;20057;-82
2022/04/30 02:29:56;;;;;;;6.90;4.40;;;;;;;;;;5017317;28;20053;-83
2022/04/30 02:32:21;;;;;;;7.50;4.70;;;;;;;;;;5018133;28;20065;-83
2022/04/30 02:34:49;;;;;;;8.77;4.93;;;;;;;;;;5017071;28;20037;-82
2022/04/30 02:37:14;;;;;;;7.13;5.00;;;;;;;;;;5017664;28;20084;-84
2022/04/30 02:39:43;;;;;;;4.63;3.75;;;;;;;;;;5017608;28;20038;-80
2022/04/30 02:42:08;;;;;;;6.82;4.78;;;;;;;;;;5000378;28;20088;-83
2022/04/30 02:44:34;;;;;;;8.38;5.40;;;;;;;;;;5017650;28;20069;-83
2022/04/30 02:47:00;;;;;;;7.13;5.10;;;;;;;;;;5017497;28;20030;-83
2022/04/30 02:49:25;;;;;;;8.48;4.70;;;;;;;;;;5017138;28;20034;-84
2022/04/30 02:51:50;;;;;;;6.45;4.82;;;;;;;;;;5016165;28;20030;-85
2022/04/30 02:54:16;;;;;;;6.20;4.82;;;;;;;;;;5017065;28;20034;-84
2022/04/30 02:56:42;;;;;;;7.57;4.95;;;;;;;;;;5015914;28;20026;-83
2022/04/30 03:01:52;;;;;;;8.10;5.25;;;;;;;;;;5017017;28;20036;-86
2022/04/30 03:04:17;;;;;;;7.38;5.55;;;;;;;;;;5017272;28;20034;-83
2022/04/30 03:06:46;;;;;;;6.50;4.97;;;;;;;;;;5015995;28;20034;-84
2022/04/30 03:09:12;;;;;;;6.40;4.72;;;;;;;;;;5016845;28;20434;-82
2022/04/30 03:11:37;;;;;;;6.40;4.72;;;;;;;;;;5016943;28;20137;-81
2022/04/30 03:14:03;;;;;;;6.85;5.43;;;;;;;;;;5015519;28;20096;-82
2022/04/30 03:21:56;;;;;;;8.02;5.20;;;;;;;;;;5015593;28;20048;-81
2022/04/30 03:24:21;;;;;;;8.00;5.70;;;;;;;;;;5015332;28;20487;-83
2022/04/30 03:26:48;;;;;;;9.43;5.32;;;;;;;;;;5032041;28;20092;-84
2022/04/30 03:29:15;;;;;;;7.38;5.15;;;;;;;;;;5014960;28;20482;-83
2022/04/30 03:31:41;;;;;;;7.68;5.57;;;;;;;;;;4999238;28;20069;-81
2022/04/30 03:34:10;;;;;;;6.78;5.20;;;;;;;;;;5015758;28;20168;-83
2022/04/30 03:36:35;;;;;;;7.82;5.30;;;;;;;;;;5016568;28;20216;-83
2022/04/30 03:39:04;;;;;;;6.88;5.03;;;;;;;;;;5015677;28;20159;-82
2022/04/30 03:41:29;;;;;;;6.45;5.47;;;;;;;;;;5015264;28;20040;-82
2022/04/30 03:43:55;;;;;;;6.93;5.18;;;;;;;;;;5016208;28;20391;-83
2022/04/30 03:46:20;;;;;;;6.85;5.05;;;;;;;;;;5016361;28;20029;-82
2022/04/30 03:48:51;;;;;;;11.23;6.00;;;;;;;;;;5015021;28;20052;-85
2022/04/30 03:51:17;;;;;;;8.27;5.82;;;;;;;;;;5015431;28;20042;-82
2022/04/30 03:53:42;;;;;;;6.57;5.50;;;;;;;;;;5015008;28;20514;-82
2022/04/30 03:56:08;;;;;;;7.82;5.90;;;;;;;;;;5014774;28;20037;-81
2022/04/30 03:58:33;;;;;;;7.47;5.18;;;;;;;;;;5016146;28;20033;-81
2022/04/30 04:00:59;;;;;;;9.95;5.50;;;;;;;;;;5016387;28;20087;-81
2022/04/30 04:03:24;;;;;;;6.88;5.35;;;;;;;;;;5014934;28;20356;-85
2022/04/30 04:05:50;;;;;;;9.50;5.57;;;;;;;;;;4998612;28;20052;-82
2022/04/30 04:08:16;;;;;;;8.02;5.50;;;;;;;;;;5014833;28;20436;-83
2022/04/30 04:10:42;;;;;;;8.48;5.65;;;;;;;;;;5014498;28;20034;-81
2022/04/30 04:18:36;;;;;;;8.18;5.60;;;;;;;;;;5015731;28;20037;-81
2022/04/30 04:21:02;;;;;;;8.10;5.80;;;;;;;;;;5014602;28;20038;-84
2022/04/30 04:23:27;;;;;;;8.05;6.00;;;;;;;;;;5014560;28;20179;-85
2022/04/30 04:26:00;;;;;;;9.40;6.07;;;;;;;;;;5016016;28;20037;-82
2022/04/30 04:28:28;;;;;;;7.72;5.85;;;;;;;;;;5019975;28;20477;-81
2022/04/30 04:30:54;;;;;;;12.07;6.25;;;;;;;;;;5016263;28;20061;-85
2022/04/30 04:33:20;;;;;;;9.57;6.75;;;;;;;;;;5005236;28;20045;-83
2022/04/30 04:35:45;;;;;;;8.40;6.10;;;;;;;;;;5021348;28;20041;-82
2022/04/30 04:38:11;;;;;;;8.32;6.18;;;;;;;;;;5017424;28;20055;-82
2022/04/30 04:40:37;;;;;;;12.25;6.60;;;;;;;;;;5015283;28;20038;-86
2022/04/30 04:43:02;;;;;;;10.40;6.53;;;;;;;;;;5015699;28;20030;-84
2022/04/30 04:45:28;;;;;;;8.82;6.05;;;;;;;;;;5014934;28;20128;-82
2022/04/30 04:47:54;;;;;;;9.50;6.50;;;;;;;;;;5013860;28;20025;-82
2022/04/30 04:50:19;;;;;;;7.90;6.35;;;;;;;;;;5023803;28;20044;-84
2022/04/30 04:52:45;;;;;;;13.52;7.07;;;;;;;;;;5007068;28;20034;-83
2022/04/30 04:55:11;;;;;;;10.77;7.10;;;;;;;;;;4997169;28;20069;-84
2022/04/30 04:57:36;;;;;;;9.00;6.53;;;;;;;;;;4999158;28;20044;-83
2022/04/30 05:00:03;;;;;;;9.27;6.30;;;;;;;;;;5000728;28;20121;-83
2022/04/30 05:02:29;;;;;;;11.15;6.57;;;;;;;;;;5020534;28;20037;-82
2022/04/30 05:04:54;;;;;;;9.40;5.72;;;;;;;;;;5014461;28;20026;-85
2022/04/30 05:07:20;;;;;;;12.90;6.55;;;;;;;;;;5013620;28;20081;-82
2022/04/30 05:09:45;;;;;;;9.65;5.82;;;;;;;;;;5014206;28;20028;-82
2022/04/30 05:12:11;;;;;;;9.63;6.22;;;;;;;;;;5014758;28;20025;-83
2022/04/30 05:14:36;;;;;;;7.88;5.75;;;;;;;;;;5013562;28;20038;-83
2022/04/30 05:17:03;;;;;;;8.40;5.95;;;;;;;;;;5014651;28;20029;-84
2022/04/30 05:19:29;;;;;;;9.32;6.43;;;;;;;;;;4997355;28;20056;-83
2022/04/30 05:21:54;;;;;;;11.95;6.32;;;;;;;;;;5013439;28;20037;-85
2022/04/30 05:24:20;;;;;;;9.70;6.63;;;;;;;;;;5014797;28;20037;-83
2022/04/30 05:26:49;;;;;;;9.38;6.30;;;;;;;;;;5014771;28;20037;-83
2022/04/30 05:29:14;;;;;;;8.95;6.70;;;;;;;;;;5014696;28;20022;-84
2022/04/30 05:31:40;;;;;;;8.75;6.07;;;;;;;;;;5013585;28;20030;-83
2022/04/30 05:34:05;;;;;;;6.50;5.55;;;;;;;;;;5013221;28;20947;-87
2022/04/30 05:36:31;;;;;;;8.88;5.75;;;;;;;;;;5013535;28;20120;-84
2022/04/30 05:38:56;;;;;;;8.98;5.95;;;;;;;;;;4996853;28;20026;-84
2022/04/30 05:41:22;;;;;;;8.20;6.00;;;;;;;;;;5013358;28;20168;-82
2022/04/30 05:43:47;;;;;;;9.02;6.00;;;;;;;;;;5013167;28;20033;-82
2022/04/30 05:46:13;;;;;;;6.78;5.13;;;;;;;;;;5013386;28;20414;-83
2022/04/30 05:48:39;;;;;;;7.80;5.30;;;;;;;;;;4998037;28;20037;-80
2022/04/30 05:51:05;;;;;;;7.55;4.85;;;;;;;;;;5014560;28;20371;-84
2022/04/30 05:53:30;;;;;;;9.07;4.40;;;;;;;;;;5014401;28;20474;-84
2022/04/30 05:55:56;;;;;;;6.68;4.28;;;;;;;;;;5012915;28;20030;-83
2022/04/30 05:58:27;;;;;;;5.38;4.05;;;;;;;;;;5013047;28;20026;-84
2022/04/30 06:00:53;;;;;;;5.88;3.60;;;;;;;;;;5013610;28;20164;-83
2022/04/30 06:03:18;;;;;;;5.40;4.00;;;;;;;;;;5014661;28;20080;-84
2022/04/30 06:05:44;;;;;;;5.78;4.35;;;;;;;;;;5015183;28;20125;-84
2022/04/30 06:08:12;;;;;;;4.53;4.00;;;;;;;;;;5013062;28;20036;-87
2022/04/30 06:10:37;;;;;;;4.35;3.47;;;;;;;;;;4998260;28;20382;-80
2022/04/30 06:13:03;;;;;;;4.60;3.72;;;;;;;;;;5013003;28;20108;-82
2022/04/30 06:15:29;;;;;;;5.43;3.90;;;;;;;;;;5013140;28;20105;-84
2022/04/30 06:17:54;;;;;;;5.82;4.00;;;;;;;;;;5014206;28;20026;-85
2022/04/30 06:20:20;;;;;;;4.10;3.67;;;;;;;;;;5013143;28;20490;-81
2022/04/30 06:22:48;;;;;;;8.18;3.63;;;;;;;;;;5014005;28;20657;-79
2022/04/30 06:25:13;;;;;;;5.10;3.42;;;;;;;;;;5014481;28;20356;-83
2022/04/30 06:27:39;;;;;;;3.78;3.22;;;;;;;;;;4996516;28;20040;-85
2022/04/30 06:30:06;;;;;;;8.25;3.70;;;;;;;;;;4996580;28;20175;-84
2022/04/30 06:32:32;;;;;;;3.60;3.30;;;;;;;;;;5014355;28;20058;-83
2022/04/30 06:34:57;;;;;;;5.03;3.42;;;;;;;;;;4999625;28;20084;-82
2022/04/30 06:37:23;;;;;;;5.18;3.70;;;;;;;;;;5016287;28;20033;-82
2022/04/30 06:39:51;;;;;;;4.45;3.72;;;;;;;;;;5016521;28;20049;-82
2022/04/30 06:42:16;;;;;;;4.00;3.60;;;;;;;;;;5000672;28;20467;-84
2022/04/30 06:44:42;;;;;;;6.65;3.78;;;;;;;;;;5018453;28;20033;-85
2022/04/30 06:47:07;;;;;;;6.40;3.45;;;;;;;;;;5016333;28;20038;-84
2022/04/30 06:49:33;;;;;;;3.97;3.35;;;;;;;;;;5016075;28;20034;-80
2022/04/30 06:51:58;;;;;;;4.82;3.35;;;;;;;;;;5019714;28;20086;-83
2022/04/30 06:57:08;;;;;;;4.32;3.78;;;;;;;;;;5016101;28;20092;-84
2022/04/30 06:59:44;;;;;;;6.03;3.53;;;;;;;;;;4999393;28;20045;-84
2022/04/30 07:02:31;;;;;;;7.25;4.13;;;;;;;;;;5016972;28;20372;-84
2022/04/30 07:04:56;;;;;;;4.32;3.50;;;;;;;;;;5016270;28;20037;-87
2022/04/30 07:07:22;;;;;;;6.45;3.50;;;;;;;;;;5016093;28;20025;-83
2022/04/30 07:09:48;;;;;;;4.43;3.22;;;;;;;;;;5015630;28;20057;-85
2022/04/30 07:12:17;;;;;;;4.10;3.40;;;;;;;;;;5017525;28;20053;-86
2022/04/30 07:14:44;;;;;;;3.83;3.15;;;;;;;;;;5017625;28;20462;-85
2022/04/30 07:17:12;;;;;;;4.68;3.60;;;;;;;;;;5016780;28;20042;-84
2022/04/30 07:19:37;;;;;;;5.05;3.25;;;;;;;;;;5017632;28;20053;-82
2022/04/30 07:22:03;;;;;;;5.85;3.28;;;;;;;;;;5028410;28;20022;-80
2022/04/30 07:24:30;;;;;;;4.95;3.10;;;;;;;;;;5027344;28;20065;-80
2022/04/30 07:26:56;;;;;;;3.97;3.10;;;;;;;;;;5009807;28;20524;-84
2022/04/30 07:29:22;;;;;;;4.68;3.22;;;;;;;;;;5016809;28;20129;-84
2022/04/30 07:31:47;;;;;;;3.63;3.05;;;;;;;;;;4999284;28;20030;-84
2022/04/30 07:34:12;;;;;;;5.80;3.10;;;;;;;;;;5015610;28;20121;-83
2022/04/30 07:36:38;;;;;;;5.90;3.20;;;;;;;;;;5015410;28;20137;-84
2022/04/30 07:39:04;;;;;;;3.40;3.10;;;;;;;;;;5015115;28;20041;-84
2022/04/30 07:41:30;;;;;;;3.13;2.90;;;;;;;;;;4999553;28;20029;-84
2022/04/30 07:43:55;;;;;;;5.07;3.10;;;;;;;;;;5016049;28;20038;-81
2022/04/30 07:46:22;;;;;;;4.13;3.25;;;;;;;;;;5015890;28;20065;-85
2022/04/30 07:48:48;;;;;;;2.92;2.70;;;;;;;;;;5018021;28;20030;-82
2022/04/30 07:51:16;;;;;;;5.32;2.97;;;;;;;;;;5018913;28;20459;-84
2022/04/30 07:53:42;;;;;;;3.38;2.70;;;;;;;;;;5016731;28;20518;-84
2022/04/30 07:56:08;;;;;;;3.53;2.72;;;;;;;;;;5014732;28;20076;-85
2022/04/30 07:58:33;;;;;;;4.03;3.17;;;;;;;;;;4999347;28;20083;-82
2022/04/30 08:00:59;;;;;;;3.47;3.17;;;;;;;;;;5016145;28;20034;-81
2022/04/30 08:03:24;;;;;;;3.22;2.60;;;;;;;;;;5030663;28;20029;-84
2022/04/30 08:05:50;;;;;;;3.60;2.70;;;;;;;;;;4998649;28;20030;-85
2022/04/30 08:08:15;;;;;;;3.17;2.85;;;;;;;;;;5015926;28;20084;-85
2022/04/30 08:11:06;;;;;;;2.70;2.20;;;;;;;;;;5016306;28;20462;-86
2022/04/30 08:13:31;;;;;;;5.88;2.58;;;;;;;;;;5014386;28;20041;-83
2022/04/30 08:15:57;;;;;;;2.75;2.55;;;;;;;;;;5015921;28;20041;-82
2022/04/30 08:18:24;;;;;;;3.63;2.40;;;;;;;;;;5014596;28;20088;-82
2022/04/30 08:20:49;;;;;;;5.55;2.80;;;;;;;;;;4998416;28;20352;-82
2022/04/30 08:23:15;;;;;;;2.60;2.08;;;;;;;;;;5016024;28;20093;-81
2022/04/30 08:25:41;;;;;;;2.28;2.08;;;;;;;;;;5015958;28;20063;-81
2022/04/30 08:28:06;;;;;;;2.58;1.90;;;;;;;;;;5015597;28;20104;-81
2022/04/30 08:30:32;;;;;;;1.92;1.83;;;;;;;;;;5016009;28;20034;-84
2022/04/30 08:32:58;;;;;;;2.20;2.00;;;;;;;;;;4997975;28;20412;-81
2022/04/30 08:35:23;;;;;;;3.00;1.90;;;;;;;;;;5015104;28;20062;-83
2022/04/30 08:37:49;;;;;;;2.38;1.90;;;;;;;;;;5014487;28;20096;-79
2022/04/30 08:40:15;;;;;;;2.22;2.03;;;;;;;;;;5014148;28;20030;-83
2022/04/30 08:42:41;;;;;;;4.95;2.03;;;;;;;;;;4997945;28;20034;-84
2022/04/30 08:45:07;;;;;;;2.97;1.83;;;;;;;;;;5014028;28;20478;-83
2022/04/30 08:47:42;;;;;;;2.55;1.80;;;;;;;;;;5014877;28;20105;-82
2022/04/30 08:50:12;;;;;;;2.35;1.88;;;;;;;;;;5014281;28;20038;-79
2022/04/30 08:52:38;;;;;;;5.53;2.20;;;;;;;;;;5014173;28;20037;-80
2022/04/30 08:55:07;;;;;;;2.47;1.90;;;;;;;;;;4997757;28;20051;-83
2022/04/30 08:57:32;;;;;;;;;;;;;;;;;;4998286;28;20030;-86
2022/04/30 08:59:58;;;;;;;2.28;1.92;;;;;;;;;;5015205;28;19935;-82
2022/04/30 09:02:24;;;;;;;2.33;2.13;;;;;;;;;;5013919;28;20045;-81
2022/04/30 09:04:49;;;;;;;2.95;2.20;;;;;;;;;;4999628;28;20038;-82
2022/04/30 09:07:25;;;;;;;3.45;2.50;;;;;;;;;;5017114;28;20406;-79
2022/04/30 09:09:55;;;;;;;1.80;1.70;;;;;;;;;;5014410;28;20532;-81
2022/04/30 09:12:20;;;;;;;2.55;1.98;;;;;;;;;;5013496;28;20034;-84
2022/04/30 09:14:47;;;;;;;4.60;1.90;;;;;;;;;;5013823;28;20032;-83
2022/04/30 09:17:13;;;;;;;3.92;2.22;;;;;;;;;;5013523;28;20443;-84
2022/04/30 09:19:45;;;;;;;2.40;2.20;;;;;;;;;;4997097;28;20092;-85
2022/04/30 09:22:11;;;;;;;2.15;1.98;;;;;;;;;;5014933;28;20116;-82
2022/04/30 09:24:49;;;;;;;2.45;1.90;;;;;;;;;;5014669;28;20440;-81
2022/04/30 09:27:18;;;;;;;3.70;2.50;;;;;;;;;;5013651;28;20037;-83
2022/04/30 09:29:44;;;;;;;2.10;1.90;;;;;;;;;;5013659;28;20336;-85
2022/04/30 09:33:20;;;;;;;2.25;1.90;;;;;;;;;;5029619;28;20041;-82
2022/04/30 09:38:39;;;;;;;4.15;2.13;;;;;;;;;;5013890;28;20092;-83
2022/04/30 09:41:07;;;;;;;2.92;1.70;;;;;;;;;;5013083;28;20444;-81
2022/04/30 09:43:34;;;;;;;2.03;1.70;;;;;;;;;;5013228;28;20033;-85
2022/04/30 09:46:04;;;;;;;2.47;1.55;;;;;;;;;;4997333;28;20034;-87
2022/04/30 09:53:58;;;;;;;2.88;1.90;;;;;;;;;;5013333;28;20045;-81
2022/04/30 09:56:43;;;;;;;3.10;1.88;;;;;;;;;;5013269;28;20038;-86
2022/04/30 09:59:13;;;;;;;2.70;1.40;;;;;;;;;;5013226;28;20034;-86
2022/04/30 10:01:42;;;;;;;;;;;;;;;;;;5013604;28;20034;-87
2022/04/30 10:04:08;;;;;;;1.73;1.63;;;;;;;;;;5013222;28;19921;-85
2022/04/30 10:06:35;;;;;;;3.08;1.63;;;;;;;;;;4997249;28;20128;-89
2022/04/30 10:09:01;;;;;;;3.65;1.90;;;;;;;;;;5016294;28;20037;-85
2022/04/30 10:11:27;;;;;;;1.98;1.65;;;;;;;;;;5016954;28;20116;-85
2022/04/30 10:13:58;;;;;;;1.65;1.55;;;;;;;;;;5017869;28;20068;-87
2022/04/30 10:16:30;;;;;;;1.50;1.40;;;;;;;;;;5017009;28;20309;-85
2022/04/30 10:19:10;;;;;;;1.90;1.80;;;;;;;;;;5017117;28;20026;-84
2022/04/30 10:21:37;;;;;;;4.50;2.00;;;;;;;;;;5016729;28;20073;-85
2022/04/30 10:24:06;;;;;;;3.13;2.10;;;;;;;;;;5016786;28;20041;-85
2022/04/30 10:26:32;;;;;;;2.83;1.63;;;;;;;;;;5016882;28;20376;-86
2022/04/30 10:29:11;;;;;;;2.38;1.77;;;;;;;;;;5017671;28;20459;-85
2022/04/30 10:31:44;;;;;;;2.75;1.80;;;;;;;;;;5001585;28;20091;-86
2022/04/30 10:34:09;;;;;;;1.80;1.70;;;;;;;;;;5016865;28;20124;-86
2022/04/30 10:36:36;;;;;;;2.83;2.00;;;;;;;;;;5016604;28;20128;-84
2022/04/30 10:39:04;;;;;;;2.75;1.50;;;;;;;;;;5016307;28;20089;-89
2022/04/30 10:41:43;;;;;;;2.60;1.80;;;;;;;;;;5001975;28;20057;-81
2022/04/30 10:44:08;;;;;;;3.50;2.10;;;;;;;;;;5016679;28;20446;-82
2022/04/30 10:46:38;;;;;;;2.20;2.00;;;;;;;;;;5016459;28;20658;-82
2022/04/30 10:49:13;;;;;;;4.22;2.30;;;;;;;;;;4999868;28;20029;-86
2022/04/30 10:51:42;;;;;;;2.95;2.50;;;;;;;;;;5016506;28;20025;-85
2022/04/30 10:54:18;;;;;;;2.35;2.00;;;;;;;;;;5017449;28;20034;-84
2022/04/30 10:56:44;;;;;;;2.45;2.25;;;;;;;;;;5017452;28;20034;-85
2022/04/30 10:59:09;;;;;;;1.60;1.50;;;;;;;;;;5015917;28;20642;-85
2022/04/30 11:01:35;;;;;;;3.00;2.10;;;;;;;;;;4999755;28;20121;-84
2022/04/30 11:04:01;;;;;;;2.05;1.85;;;;;;;;;;5015777;28;20376;-83
2022/04/30 11:06:31;;;;;;;4.78;2.00;;;;;;;;;;5017390;28;20034;-84
2022/04/30 11:09:06;;;;;;;3.90;2.10;;;;;;;;;;4983698;28;20033;-82
2022/04/30 11:11:32;;;;;;;2.50;1.85;;;;;;;;;;5015913;28;20444;-83
2022/04/30 11:14:03;;;;;;;2.10;1.90;;;;;;;;;;5017437;28;20337;-85
2022/04/30 11:16:32;;;;;;;2.20;2.00;;;;;;;;;;5017219;28;20041;-84
2022/04/30 11:19:10;;;;;;;2.47;1.80;;;;;;;;;;5015700;28;20037;-86
2022/04/30 11:21:37;;;;;;;3.60;1.88;;;;;;;;;;5015085;28;20040;-83
2022/04/30 11:24:03;;;;;;;2.55;1.70;;;;;;;;;;5015752;28;20033;-87
2022/04/30 11:26:30;;;;;;;2.03;1.80;;;;;;;;;;5015571;28;20444;-84
2022/04/30 11:28:56;;;;;;;2.22;1.90;;;;;;;;;;5014865;28;20045;-84
2022/04/30 11:31:22;;;;;;;5.72;1.85;;;;;;;;;;5015742;28;20045;-85
2022/04/30 11:33:47;;;;;;;2.05;1.85;;;;;;;;;;4998919;28;20050;-85
2022/04/30 11:36:13;;;;;;;1.75;1.60;;;;;;;;;;5016691;28;20042;-85
2022/04/30 11:38:38;;;;;;;1.88;1.65;;;;;;;;;;5016394;28;20030;-82
2022/04/30 11:41:09;;;;;;;1.65;1.55;;;;;;;;;;5015062;28;20034;-85
2022/04/30 11:43:36;;;;;;;3.00;1.70;;;;;;;;;;5031390;28;20037;-84
2022/04/30 11:46:02;;;;;;;1.83;1.73;;;;;;;;;;5016390;28;20168;-82
2022/04/30 11:48:32;;;;;;;2.42;1.70;;;;;;;;;;5015367;28;20041;-85
2022/04/30 11:50:57;;;;;;;3.03;1.52;;;;;;;;;;5015337;28;20456;-85
2022/04/30 11:53:23;;;;;;;2.53;1.73;;;;;;;;;;5015181;28;20048;-81
2022/04/30 11:55:48;;;;;;;2.03;1.73;;;;;;;;;;5014888;28;20042;-82
2022/04/30 11:58:13;;;;;;;4.07;1.92;;;;;;;;;;5014820;28;20029;-85
2022/04/30 12:00:39;;;;;;;4.43;1.60;;;;;;;;;;4998646;28;20087;-86
2022/04/30 12:03:09;;;;;;;2.63;1.83;;;;;;;;;;4998339;28;20030;-83
2022/04/30 12:05:34;;;;;;;3.90;1.55;;;;;;;;;;5016792;28;20088;-82
2022/04/30 12:08:01;;;;;;;2.08;1.80;;;;;;;;;;5015229;28;20038;-83
2022/04/30 12:10:26;;;;;;;2.30;1.70;;;;;;;;;;5014532;28;20032;-86
2022/04/30 12:12:52;;;;;;;1.80;1.50;;;;;;;;;;5015068;28;20128;-85
2022/04/30 12:15:19;;;;;;;2.00;1.77;;;;;;;;;;5014749;28;20044;-85
2022/04/30 12:17:45;;;;;;;4.32;1.65;;;;;;;;;;5014584;28;20407;-86
2022/04/30 12:25:45;;;;;;;2.85;1.70;;;;;;;;;;5000847;28;20044;-85
2022/04/30 12:28:11;;;;;;;2.67;1.77;;;;;;;;;;4998398;28;20460;-87
2022/04/30 12:30:37;;;;;;;1.70;1.42;;;;;;;;;;5014591;28;20037;-82
2022/04/30 12:33:04;;;;;;;2.05;1.73;;;;;;;;;;4998047;28;20022;-83
2022/04/30 12:35:34;;;;;;;1.80;1.70;;;;;;;;;;5015745;28;20459;-82
2022/04/30 12:38:13;;;;;;;1.80;1.70;;;;;;;;;;4998116;28;20524;-83
2022/04/30 12:40:39;;;;;;;2.08;1.52;;;;;;;;;;4997966;28;20065;-85
2022/04/30 12:43:05;;;;;;;1.75;1.48;;;;;;;;;;5014171;28;20068;-84
2022/04/30 12:45:34;;;;;;;3.38;1.50;;;;;;;;;;5015337;28;20041;-82
2022/04/30 12:48:00;;;;;;;1.70;1.60;;;;;;;;;;4998525;28;20034;-85
2022/04/30 12:50:26;;;;;;;1.70;1.60;;;;;;;;;;4981919;28;20029;-85
2022/04/30 12:52:52;;;;;;;1.70;1.50;;;;;;;;;;4997424;28;20036;-83
2022/04/30 12:55:18;;;;;;;3.20;1.65;;;;;;;;;;5014078;28;20045;-81
2022/04/30 12:57:45;;;;;;;1.65;1.52;;;;;;;;;;5015182;28;20034;-85
2022/04/30 13:00:11;;;;;;;10.10;2.05;;;;;;;;;;4997848;28;20030;-83
2022/04/30 13:02:38;;;;;;;2.85;1.52;;;;;;;;;;5015152;28;20520;-81
2022/04/30 13:05:08;;;;;;;1.83;1.40;;;;;;;;;;5013963;28;20064;-82
2022/04/30 13:07:38;;;;;;;3.75;1.50;;;;;;;;;;5014860;28;20033;-86
2022/04/30 13:15:32;;;;;;;2.20;1.40;;;;;;;;;;5014283;28;20037;-90
2022/04/30 13:17:58;;;;;;;2.13;1.52;;;;;;;;;;4997704;28;20063;-81
2022/04/30 13:20:25;;;;;;;1.98;1.60;;;;;;;;;;5013895;28;20056;-84
2022/04/30 13:22:52;;;;;;;1.77;1.67;;;;;;;;;;5014057;28;20479;-82
2022/04/30 13:25:18;;;;;;;1.58;1.30;;;;;;;;;;5013713;28;20072;-86
2022/04/30 13:27:45;;;;;;;3.17;1.50;;;;;;;;;;5016575;28;20022;-86
2022/04/30 13:30:11;;;;;;;2.13;1.55;;;;;;;;;;5014707;28;20041;-86
2022/04/30 13:32:37;;;;;;;2.00;1.70;;;;;;;;;;5016541;28;20034;-84
2022/04/30 13:35:02;;;;;;;1.88;1.50;;;;;;;;;;4998571;28;20044;-86
2022/04/30 13:37:28;;;;;;;3.00;1.48;;;;;;;;;;5015089;28;20033;-87
2022/04/30 13:39:53;;;;;;;1.70;1.33;;;;;;;;;;5024035;28;20030;-84
2022/04/30 13:42:19;;;;;;;1.70;1.60;;;;;;;;;;5023371;28;20088;-84
2022/04/30 13:44:44;;;;;;;1.63;1.52;;;;;;;;;;5008499;28;20064;-87
2022/04/30 13:47:10;;;;;;;2.45;1.52;;;;;;;;;;5020563;28;20041;-88
2022/04/30 13:49:35;;;;;;;4.75;1.60;;;;;;;;;;5017659;28;20061;-83
2022/04/30 13:52:02;;;;;;;2.05;1.45;;;;;;;;;;5000620;28;20025;-83
2022/04/30 13:54:28;;;;;;;2.00;1.40;;;;;;;;;;5017763;28;20053;-86
2022/04/30 13:56:54;;;;;;;2.08;1.52;;;;;;;;;;5018807;28;20140;-85
2022/04/30 13:59:24;;;;;;;1.40;1.30;;;;;;;;;;5017519;28;20115;-81
2022/04/30 14:01:49;;;;;;;;;;;;;;;;;;5018002;28;20045;-83
2022/04/30 14:04:15;;;;;;;4.75;1.70;;;;;;;;;;5020095;28;20287;-82
2022/04/30 14:06:40;;;;;;;1.75;1.52;;;;;;;;;;5019181;28;20367;-83
2022/04/30 14:09:06;;;;;;;4.35;1.48;;;;;;;;;;5022854;28;20026;-84
2022/04/30 14:11:31;;;;;;;1.67;1.40;;;;;;;;;;5018856;28;20103;-80
2022/04/30 14:16:40;;;;;;;2.65;1.50;;;;;;;;;;5018062;28;20490;-83
2022/04/30 14:19:06;;;;;;;1.67;1.40;;;;;;;;;;5016677;28;20022;-79
2022/04/30 14:21:31;;;;;;;2.00;1.60;;;;;;;;;;5017919;28;20022;-83
2022/04/30 14:23:57;;;;;;;1.83;1.50;;;;;;;;;;5018385;28;20037;-86
2022/04/30 14:26:22;;;;;;;2.50;1.85;;;;;;;;;;5018152;28;20025;-82
2022/04/30 14:28:48;;;;;;;1.52;1.23;;;;;;;;;;5018131;28;20026;-85
2022/04/30 14:31:14;;;;;;;1.77;1.40;;;;;;;;;;5018032;28;20038;-83
2022/04/30 14:33:40;;;;;;;7.63;1.80;;;;;;;;;;5016830;28;20030;-86
2022/04/30 14:36:05;;;;;;;1.38;1.27;;;;;;;;;;5016586;28;20029;-83
2022/04/30 14:38:31;;;;;;;1.63;1.52;;;;;;;;;;5017761;28;20026;-85
2022/04/30 14:40:56;;;;;;;2.05;1.50;;;;;;;;;;5017632;28;20096;-86
2022/04/30 14:43:22;;;;;;;3.75;1.50;;;;;;;;;;5016542;28;20124;-82
2022/04/30 14:45:47;;;;;;;1.40;1.30;;;;;;;;;;5016245;28;20052;-82
2022/04/30 14:48:13;;;;;;;3.83;1.50;;;;;;;;;;5016738;28;20042;-85
2022/04/30 14:50:39;;;;;;;2.15;1.67;;;;;;;;;;5000298;28;20042;-82
2022/04/30 14:53:05;;;;;;;1.42;1.33;;;;;;;;;;5017638;28;20037;-82
2022/04/30 14:55:30;;;;;;;2.08;1.40;;;;;;;;;;5017642;28;20049;-83
2022/04/30 14:57:56;;;;;;;1.98;1.55;;;;;;;;;;5017307;28;20057;-84
2022/04/30 15:00:22;;;;;;;2.00;1.40;;;;;;;;;;5016226;28;20037;-82
2022/04/30 15:02:47;;;;;;;1.70;1.60;;;;;;;;;;5017331;28;20379;-84
2022/04/30 15:05:12;;;;;;;2.40;1.60;;;;;;;;;;5016926;28;20084;-82
2022/04/30 15:07:38;;;;;;;2.28;1.38;;;;;;;;;;5017439;28;20034;-82
2022/04/30 15:10:04;;;;;;;1.77;1.50;;;;;;;;;;5016143;28;20107;-83
2022/04/30 15:12:30;;;;;;;4.30;1.65;;;;;;;;;;5016262;28;20109;-85
2022/04/30 15:14:55;;;;;;;11.02;1.60;;;;;;;;;;5018698;28;20045;-85
2022/04/30 15:17:21;;;;;;;2.33;1.45;;;;;;;;;;5017448;28;20379;-82
2022/04/30 15:19:47;;;;;;;2.95;1.70;;;;;;;;;;5016759;28;20034;-83
2022/04/30 15:22:12;;;;;;;1.80;1.60;;;;;;;;;;5016074;28;20033;-83
2022/04/30 15:24:39;;;;;;;1.60;1.50;;;;;;;;;;5016574;28;20507;-83
2022/04/30 15:27:04;;;;;;;2.75;1.50;;;;;;;;;;5015525;28;20110;-85